sensor_id;sensor_type;location;lat;lon;timestamp;pressure;altitude;pressure_sealevel;temperature;humidity
10806;BME280;5455;53.224;6.000;2024-02-16T00:00:09;100905.59;;;11.73;100.00
10806;BME280;5455;53.224;6.000;2024-02-16T00:02:40;100904.38;;;11.70;100.00
10806;BME280;5455;53.224;6.000;2024-02-16T00:05:11;100893.34;;;11.70;100.00
10806;BME280;5455;53.224;6.000;2024-02-16T00:07:39;100899.44;;;11.79;100.00
10806;BME280;5455;53.224;6.000;2024-02-16T00:10:08;100894.31;;;11.81;100.00
10806;BME280;5455;53.224;6.000;2024-02-16T00:12:37;100901.81;;;11.81;100.00
10806;BME280;5455;53.224;6.000;2024-02-16T00:15:08;100897.53;;;11.83;100.00
10806;BME280;5455;53.224;6.000;2024-02-16T00:17:36;100898.31;;;11.84;100.00
10806;BME280;5455;53.224;6.000;2024-02-16T00:20:04;100901.03;;;11.80;100.00
10806;BME280;5455;53.224;6.000;2024-02-16T00:22:34;100893.41;;;11.74;100.00
10806;BME280;5455;53.224;6.000;2024-02-16T00:25:01;100891.00;;;11.72;100.00
10806;BME280;5455;53.224;6.000;2024-02-16T00:27:28;100886.66;;;11.71;100.00
10806;BME280;5455;53.224;6.000;2024-02-16T00:29:55;100891.81;;;11.73;100.00
10806;BME280;5455;53.224;6.000;2024-02-16T00:32:22;100882.91;;;11.63;100.00
10806;BME280;5455;53.224;6.000;2024-02-16T00:34:51;100885.66;;;11.63;100.00
10806;BME280;5455;53.224;6.000;2024-02-16T00:37:21;100878.91;;;11.61;100.00
10806;BME280;5455;53.224;6.000;2024-02-16T00:39:49;100880.53;;;11.62;100.00
10806;BME280;5455;53.224;6.000;2024-02-16T00:42:16;100880.03;;;11.56;100.00
10806;BME280;5455;53.224;6.000;2024-02-16T00:44:43;100873.19;;;11.50;100.00
10806;BME280;5455;53.224;6.000;2024-02-16T00:47:10;100870.72;;;11.45;100.00
10806;BME280;5455;53.224;6.000;2024-02-16T00:49:37;100865.13;;;11.42;100.00
10806;BME280;5455;53.224;6.000;2024-02-16T00:52:04;100861.94;;;11.40;100.00
10806;BME280;5455;53.224;6.000;2024-02-16T00:54:32;100858.75;;;11.38;100.00
10806;BME280;5455;53.224;6.000;2024-02-16T00:56:59;100852.28;;;11.30;100.00
10806;BME280;5455;53.224;6.000;2024-02-16T00:59:30;100856.00;;;11.38;100.00
10806;BME280;5455;53.224;6.000;2024-02-16T01:01:57;100862.31;;;11.38;100.00
10806;BME280;5455;53.224;6.000;2024-02-16T01:04:24;100857.06;;;11.33;100.00
10806;BME280;5455;53.224;6.000;2024-02-16T01:06:51;100865.72;;;11.32;100.00
10806;BME280;5455;53.224;6.000;2024-02-16T01:09:18;100873.56;;;11.30;100.00
10806;BME280;5455;53.224;6.000;2024-02-16T01:11:45;100867.25;;;11.29;100.00
10806;BME280;5455;53.224;6.000;2024-02-16T01:14:12;100856.97;;;11.30;100.00
10806;BME280;5455;53.224;6.000;2024-02-16T01:16:39;100858.59;;;11.31;100.00
10806;BME280;5455;53.224;6.000;2024-02-16T01:19:06;100851.84;;;11.28;100.00
10806;BME280;5455;53.224;6.000;2024-02-16T01:21:34;100855.75;;;11.27;100.00
10806;BME280;5455;53.224;6.000;2024-02-16T01:24:01;100856.84;;;11.23;100.00
10806;BME280;5455;53.224;6.000;2024-02-16T01:26:29;100851.25;;;11.19;100.00
10806;BME280;5455;53.224;6.000;2024-02-16T01:28:56;100845.25;;;11.14;100.00
10806;BME280;5455;53.224;6.000;2024-02-16T01:31:25;100851.41;;;11.07;100.00
10806;BME280;5455;53.224;6.000;2024-02-16T01:33:53;100846.22;;;11.05;100.00
10806;BME280;5455;53.224;6.000;2024-02-16T01:36:20;100839.84;;;11.01;100.00
10806;BME280;5455;53.224;6.000;2024-02-16T01:38:47;100840.66;;;11.02;100.00
10806;BME280;5455;53.224;6.000;2024-02-16T01:41:15;100845.38;;;11.01;100.00
10806;BME280;5455;53.224;6.000;2024-02-16T01:43:42;100835.41;;;10.97;100.00
10806;BME280;5455;53.224;6.000;2024-02-16T01:46:09;100832.22;;;10.95;100.00
10806;BME280;5455;53.224;6.000;2024-02-16T01:48:36;100826.28;;;10.93;100.00
10806;BME280;5455;53.224;6.000;2024-02-16T01:51:08;100830.19;;;10.92;100.00
10806;BME280;5455;53.224;6.000;2024-02-16T01:53:35;100826.63;;;10.91;100.00
10806;BME280;5455;53.224;6.000;2024-02-16T01:56:04;100817.63;;;10.94;100.00
10806;BME280;5455;53.224;6.000;2024-02-16T01:58:32;100817.72;;;10.98;100.00
10806;BME280;5455;53.224;6.000;2024-02-16T02:01:00;100813.28;;;10.93;100.00
10806;BME280;5455;53.224;6.000;2024-02-16T02:03:27;100810.44;;;10.90;100.00
10806;BME280;5455;53.224;6.000;2024-02-16T02:05:55;100819.53;;;10.90;100.00
10806;BME280;5455;53.224;6.000;2024-02-16T02:08:25;100816.78;;;10.90;100.00
10806;BME280;5455;53.224;6.000;2024-02-16T02:10:53;100825.41;;;10.89;100.00
10806;BME280;5455;53.224;6.000;2024-02-16T02:13:20;100813.56;;;10.88;100.00
10806;BME280;5455;53.224;6.000;2024-02-16T02:15:49;100798.97;;;10.88;100.00
10806;BME280;5455;53.224;6.000;2024-02-16T02:18:16;100811.59;;;10.89;100.00
10806;BME280;5455;53.224;6.000;2024-02-16T02:20:43;100802.53;;;10.88;100.00
10806;BME280;5455;53.224;6.000;2024-02-16T02:23:10;100794.72;;;10.90;100.00
10806;BME280;5455;53.224;6.000;2024-02-16T02:25:37;100784.91;;;10.93;100.00
10806;BME280;5455;53.224;6.000;2024-02-16T02:28:07;100792.38;;;10.92;100.00
10806;BME280;5455;53.224;6.000;2024-02-16T02:30:35;100798.69;;;10.93;100.00
10806;BME280;5455;53.224;6.000;2024-02-16T02:33:02;100800.13;;;10.87;100.00
10806;BME280;5455;53.224;6.000;2024-02-16T02:35:30;100808.69;;;10.82;100.00
10806;BME280;5455;53.224;6.000;2024-02-16T02:37:57;100800.72;;;10.77;100.00
10806;BME280;5455;53.224;6.000;2024-02-16T02:40:24;100793.22;;;10.77;100.00
10806;BME280;5455;53.224;6.000;2024-02-16T02:42:52;100798.31;;;10.75;100.00
10806;BME280;5455;53.224;6.000;2024-02-16T02:45:20;100786.50;;;10.75;100.00
10806;BME280;5455;53.224;6.000;2024-02-16T02:47:48;100790.47;;;10.77;100.00
10806;BME280;5455;53.224;6.000;2024-02-16T02:50:15;100782.28;;;10.81;100.00
10806;BME280;5455;53.224;6.000;2024-02-16T02:52:44;100778.28;;;10.78;100.00
10806;BME280;5455;53.224;6.000;2024-02-16T02:55:12;100778.34;;;10.82;100.00
10806;BME280;5455;53.224;6.000;2024-02-16T02:57:40;100788.59;;;10.81;100.00
10806;BME280;5455;53.224;6.000;2024-02-16T03:00:08;100780.25;;;10.78;100.00
10806;BME280;5455;53.224;6.000;2024-02-16T03:02:39;100775.00;;;10.73;100.00
10806;BME280;5455;53.224;6.000;2024-02-16T03:05:07;100775.81;;;10.73;100.00
10806;BME280;5455;53.224;6.000;2024-02-16T03:07:34;100765.16;;;10.72;100.00
10806;BME280;5455;53.224;6.000;2024-02-16T03:10:02;100752.50;;;10.71;100.00
10806;BME280;5455;53.224;6.000;2024-02-16T03:12:31;100748.59;;;10.72;100.00
10806;BME280;5455;53.224;6.000;2024-02-16T03:14:59;100748.69;;;10.75;100.00
10806;BME280;5455;53.224;6.000;2024-02-16T03:17:26;100736.13;;;10.78;100.00
10806;BME280;5455;53.224;6.000;2024-02-16T03:19:53;100738.88;;;10.78;100.00
10806;BME280;5455;53.224;6.000;2024-02-16T03:22:22;100736.84;;;10.75;100.00
10806;BME280;5455;53.224;6.000;2024-02-16T03:24:49;100743.44;;;10.70;100.00
10806;BME280;5455;53.224;6.000;2024-02-16T03:27:16;100759.56;;;10.68;100.00
10806;BME280;5455;53.224;6.000;2024-02-16T03:29:44;100764.56;;;10.63;100.00
10806;BME280;5455;53.224;6.000;2024-02-16T03:32:11;100760.13;;;10.58;100.00
10806;BME280;5455;53.224;6.000;2024-02-16T03:34:39;100759.31;;;10.58;100.00
10806;BME280;5455;53.224;6.000;2024-02-16T03:37:06;100751.75;;;10.55;100.00
10806;BME280;5455;53.224;6.000;2024-02-16T03:39:33;100757.94;;;10.48;100.00
10806;BME280;5455;53.224;6.000;2024-02-16T03:42:00;100746.13;;;10.47;100.00
10806;BME280;5455;53.224;6.000;2024-02-16T03:44:27;100759.91;;;10.47;100.00
10806;BME280;5455;53.224;6.000;2024-02-16T03:46:54;100757.22;;;10.51;100.00
10806;BME280;5455;53.224;6.000;2024-02-16T03:49:23;100751.75;;;10.55;100.00
10806;BME280;5455;53.224;6.000;2024-02-16T03:51:50;100737.97;;;10.55;100.00
10806;BME280;5455;53.224;6.000;2024-02-16T03:54:17;100734.94;;;10.60;100.00
10806;BME280;5455;53.224;6.000;2024-02-16T03:56:44;100718.75;;;10.58;100.00
10806;BME280;5455;53.224;6.000;2024-02-16T03:59:12;100727.84;;;10.59;100.00
10806;BME280;5455;53.224;6.000;2024-02-16T04:01:39;100730.25;;;10.60;100.00
10806;BME280;5455;53.224;6.000;2024-02-16T04:04:06;100731.09;;;10.64;100.00
10806;BME280;5455;53.224;6.000;2024-02-16T04:06:33;100736.69;;;10.68;100.00
10806;BME280;5455;53.224;6.000;2024-02-16T04:09:00;100734.44;;;10.73;100.00
10806;BME280;5455;53.224;6.000;2024-02-16T04:11:27;100731.69;;;10.73;100.00
10806;BME280;5455;53.224;6.000;2024-02-16T04:13:56;100735.53;;;10.69;100.00
10806;BME280;5455;53.224;6.000;2024-02-16T04:16:23;100737.78;;;10.63;100.00
10806;BME280;5455;53.224;6.000;2024-02-16T04:18:52;100739.75;;;10.63;100.00
10806;BME280;5455;53.224;6.000;2024-02-16T04:21:19;100744.09;;;10.64;100.00
10806;BME280;5455;53.224;6.000;2024-02-16T04:23:48;100740.59;;;10.67;100.00
10806;BME280;5455;53.224;6.000;2024-02-16T04:26:15;100735.88;;;10.67;100.00
10806;BME280;5455;53.224;6.000;2024-02-16T04:28:42;100727.69;;;10.71;100.00
10806;BME280;5455;53.224;6.000;2024-02-16T04:31:10;100731.34;;;10.75;100.00
10806;BME280;5455;53.224;6.000;2024-02-16T04:33:37;100736.94;;;10.78;100.00
10806;BME280;5455;53.224;6.000;2024-02-16T04:36:06;100755.13;;;10.83;100.00
10806;BME280;5455;53.224;6.000;2024-02-16T04:38:35;100748.00;;;10.82;100.00
10806;BME280;5455;53.224;6.000;2024-02-16T04:41:04;100734.66;;;10.84;100.00
10806;BME280;5455;53.224;6.000;2024-02-16T04:43:32;100731.53;;;10.85;100.00
10806;BME280;5455;53.224;6.000;2024-02-16T04:46:00;100736.69;;;10.87;100.00
10806;BME280;5455;53.224;6.000;2024-02-16T04:48:27;100739.53;;;10.90;100.00
10806;BME280;5455;53.224;6.000;2024-02-16T04:50:55;100743.88;;;10.91;100.00
10806;BME280;5455;53.224;6.000;2024-02-16T04:53:22;100737.94;;;10.89;100.00
10806;BME280;5455;53.224;6.000;2024-02-16T04:55:49;100736.81;;;10.94;100.00
10806;BME280;5455;53.224;6.000;2024-02-16T04:58:17;100741.91;;;10.92;100.00
10806;BME280;5455;53.224;6.000;2024-02-16T05:00:44;100735.16;;;10.89;100.00
10806;BME280;5455;53.224;6.000;2024-02-16T05:03:14;100723.00;;;10.90;100.00
10806;BME280;5455;53.224;6.000;2024-02-16T05:05:42;100725.38;;;10.92;100.00
10806;BME280;5455;53.224;6.000;2024-02-16T05:08:09;100729.28;;;10.91;100.00
10806;BME280;5455;53.224;6.000;2024-02-16T05:10:36;100723.34;;;10.89;100.00
10806;BME280;5455;53.224;6.000;2024-02-16T05:13:04;100715.78;;;10.86;100.00
10806;BME280;5455;53.224;6.000;2024-02-16T05:15:31;100719.69;;;10.85;100.00
10806;BME280;5455;53.224;6.000;2024-02-16T05:18:00;100718.13;;;10.84;100.00
10806;BME280;5455;53.224;6.000;2024-02-16T05:20:28;100720.50;;;10.85;100.00
10806;BME280;5455;53.224;6.000;2024-02-16T05:22:55;100720.06;;;10.83;100.00
10806;BME280;5455;53.224;6.000;2024-02-16T05:25:23;100720.72;;;10.77;100.00
10806;BME280;5455;53.224;6.000;2024-02-16T05:27:50;100713.91;;;10.71;100.00
10806;BME280;5455;53.224;6.000;2024-02-16T05:30:17;100714.88;;;10.78;100.00
10806;BME280;5455;53.224;6.000;2024-02-16T05:32:44;100713.25;;;10.77;100.00
10806;BME280;5455;53.224;6.000;2024-02-16T05:35:12;100713.25;;;10.77;100.00
10806;BME280;5455;53.224;6.000;2024-02-16T05:37:45;100701.81;;;10.75;100.00
10806;BME280;5455;53.224;6.000;2024-02-16T05:40:18;100699.03;;;10.75;100.00
10806;BME280;5455;53.224;6.000;2024-02-16T05:42:49;100695.03;;;10.73;100.00
10806;BME280;5455;53.224;6.000;2024-02-16T05:45:16;100691.34;;;10.65;100.00
10806;BME280;5455;53.224;6.000;2024-02-16T05:47:44;100692.94;;;10.66;100.00
10806;BME280;5455;53.224;6.000;2024-02-16T05:50:15;100706.75;;;10.66;100.00
10806;BME280;5455;53.224;6.000;2024-02-16T05:52:43;100702.72;;;10.64;100.00
10806;BME280;5455;53.224;6.000;2024-02-16T05:55:11;100698.81;;;10.65;100.00
10806;BME280;5455;53.224;6.000;2024-02-16T05:57:40;100691.78;;;10.67;100.00
10806;BME280;5455;53.224;6.000;2024-02-16T06:00:09;100707.59;;;10.70;100.00
10806;BME280;5455;53.224;6.000;2024-02-16T06:02:37;100700.03;;;10.67;100.00
10806;BME280;5455;53.224;6.000;2024-02-16T06:05:05;100721.97;;;10.60;100.00
10806;BME280;5455;53.224;6.000;2024-02-16T06:07:32;100714.94;;;10.63;100.00
10806;BME280;5455;53.224;6.000;2024-02-16T06:10:02;100718.91;;;10.65;100.00
10806;BME280;5455;53.224;6.000;2024-02-16T06:12:33;100714.47;;;10.61;100.00
10806;BME280;5455;53.224;6.000;2024-02-16T06:15:04;100723.84;;;10.56;100.00
10806;BME280;5455;53.224;6.000;2024-02-16T06:17:32;100710.50;;;10.58;100.00
10806;BME280;5455;53.224;6.000;2024-02-16T06:20:00;100708.75;;;10.50;100.00
10806;BME280;5455;53.224;6.000;2024-02-16T06:22:28;100707.88;;;10.46;100.00
10806;BME280;5455;53.224;6.000;2024-02-16T06:24:55;100720.13;;;10.48;100.00
10806;BME280;5455;53.224;6.000;2024-02-16T06:27:22;100714.56;;;10.45;100.00
10806;BME280;5455;53.224;6.000;2024-02-16T06:29:50;100720.00;;;10.41;100.00
10806;BME280;5455;53.224;6.000;2024-02-16T06:32:17;100719.91;;;10.38;100.00
10806;BME280;5455;53.224;6.000;2024-02-16T06:34:45;100718.75;;;10.39;100.00
10806;BME280;5455;53.224;6.000;2024-02-16T06:37:12;100720.34;;;10.40;100.00
10806;BME280;5455;53.224;6.000;2024-02-16T06:39:40;100730.22;;;10.41;100.00
10806;BME280;5455;53.224;6.000;2024-02-16T06:42:08;100723.09;;;10.40;100.00
10806;BME280;5455;53.224;6.000;2024-02-16T06:44:35;100724.28;;;10.39;100.00
10806;BME280;5455;53.224;6.000;2024-02-16T06:47:02;100719.19;;;10.41;100.00
10806;BME280;5455;53.224;6.000;2024-02-16T06:49:30;100727.88;;;10.43;100.00
10806;BME280;5455;53.224;6.000;2024-02-16T06:51:58;100729.56;;;10.47;100.00
10806;BME280;5455;53.224;6.000;2024-02-16T06:54:24;100733.56;;;10.50;100.00
10806;BME280;5455;53.224;6.000;2024-02-16T06:56:51;100735.50;;;10.49;100.00
10806;BME280;5455;53.224;6.000;2024-02-16T06:59:18;100748.06;;;10.47;100.00
10806;BME280;5455;53.224;6.000;2024-02-16T07:01:46;100736.88;;;10.40;100.00
10806;BME280;5455;53.224;6.000;2024-02-16T07:04:13;100746.75;;;10.41;100.00
10806;BME280;5455;53.224;6.000;2024-02-16T07:06:40;100756.69;;;10.45;100.00
10806;BME280;5455;53.224;6.000;2024-02-16T07:09:07;100759.00;;;10.43;100.00
10806;BME280;5455;53.224;6.000;2024-02-16T07:11:34;100765.03;;;10.49;100.00
10806;BME280;5455;53.224;6.000;2024-02-16T07:14:02;100772.97;;;10.50;100.00
10806;BME280;5455;53.224;6.000;2024-02-16T07:16:30;100772.50;;;10.48;100.00
10806;BME280;5455;53.224;6.000;2024-02-16T07:18:59;100784.31;;;10.49;100.00
10806;BME280;5455;53.224;6.000;2024-02-16T07:21:26;100777.16;;;10.44;100.00
10806;BME280;5455;53.224;6.000;2024-02-16T07:23:53;100776.53;;;10.51;100.00
10806;BME280;5455;53.224;6.000;2024-02-16T07:26:21;100782.88;;;10.55;100.00
10806;BME280;5455;53.224;6.000;2024-02-16T07:28:48;100785.31;;;10.57;100.00
10806;BME280;5455;53.224;6.000;2024-02-16T07:31:15;100771.94;;;10.59;100.00
10806;BME280;5455;53.224;6.000;2024-02-16T07:33:43;100775.13;;;10.61;100.00
10806;BME280;5455;53.224;6.000;2024-02-16T07:36:11;100772.47;;;10.64;100.00
10806;BME280;5455;53.224;6.000;2024-02-16T07:38:38;100767.41;;;10.66;100.00
10806;BME280;5455;53.224;6.000;2024-02-16T07:41:05;100765.88;;;10.69;100.00
10806;BME280;5455;53.224;6.000;2024-02-16T07:43:35;100772.97;;;10.70;100.00
10806;BME280;5455;53.224;6.000;2024-02-16T07:46:02;100772.31;;;10.76;100.00
10806;BME280;5455;53.224;6.000;2024-02-16T07:48:30;100767.63;;;10.77;100.00
10806;BME280;5455;53.224;6.000;2024-02-16T07:50:57;100766.81;;;10.76;100.00
10806;BME280;5455;53.224;6.000;2024-02-16T07:53:28;100775.59;;;10.82;100.00
10806;BME280;5455;53.224;6.000;2024-02-16T07:55:55;100779.59;;;10.84;100.00
10806;BME280;5455;53.224;6.000;2024-02-16T07:58:22;100781.19;;;10.85;100.00
10806;BME280;5455;53.224;6.000;2024-02-16T08:00:50;100774.94;;;10.88;100.00
10806;BME280;5455;53.224;6.000;2024-02-16T08:03:18;100777.34;;;10.90;100.00
10806;BME280;5455;53.224;6.000;2024-02-16T08:05:46;100784.91;;;10.93;100.00
10806;BME280;5455;53.224;6.000;2024-02-16T08:08:13;100784.09;;;10.92;100.00
10806;BME280;5455;53.224;6.000;2024-02-16T08:10:41;100776.63;;;10.93;100.00
10806;BME280;5455;53.224;6.000;2024-02-16T08:13:08;100786.44;;;10.90;100.00
10806;BME280;5455;53.224;6.000;2024-02-16T08:15:35;100791.94;;;10.90;100.00
10806;BME280;5455;53.224;6.000;2024-02-16T08:18:02;100792.38;;;10.92;100.00
10806;BME280;5455;53.224;6.000;2024-02-16T08:20:30;100785.41;;;10.98;100.00
10806;BME280;5455;53.224;6.000;2024-02-16T08:22:57;100791.78;;;11.02;100.00
10806;BME280;5455;53.224;6.000;2024-02-16T08:25:25;100793.38;;;11.03;100.00
10806;BME280;5455;53.224;6.000;2024-02-16T08:27:54;100795.00;;;11.04;100.00
10806;BME280;5455;53.224;6.000;2024-02-16T08:30:21;100799.78;;;11.07;100.00
10806;BME280;5455;53.224;6.000;2024-02-16T08:32:48;100791.13;;;11.09;100.00
10806;BME280;5455;53.224;6.000;2024-02-16T08:35:15;100792.50;;;11.19;100.00
10806;BME280;5455;53.224;6.000;2024-02-16T08:37:44;100801.34;;;11.28;100.00
10806;BME280;5455;53.224;6.000;2024-02-16T08:40:12;100799.59;;;11.39;100.00
10806;BME280;5455;53.224;6.000;2024-02-16T08:42:41;100810.44;;;11.47;100.00
10806;BME280;5455;53.224;6.000;2024-02-16T08:45:13;100814.03;;;11.51;100.00
10806;BME280;5455;53.224;6.000;2024-02-16T08:47:44;100819.69;;;11.58;100.00
10806;BME280;5455;53.224;6.000;2024-02-16T08:50:16;100822.22;;;11.67;100.00
10806;BME280;5455;53.224;6.000;2024-02-16T08:52:43;100818.31;;;11.68;100.00
10806;BME280;5455;53.224;6.000;2024-02-16T08:55:11;100829.06;;;11.73;100.00
10806;BME280;5455;53.224;6.000;2024-02-16T08:57:39;100824.03;;;11.79;100.00
10806;BME280;5455;53.224;6.000;2024-02-16T09:00:07;100821.41;;;11.86;100.00
10806;BME280;5455;53.224;6.000;2024-02-16T09:02:36;100825.75;;;11.87;100.00
10806;BME280;5455;53.224;6.000;2024-02-16T09:05:04;100825.06;;;11.93;100.00
10806;BME280;5455;53.224;6.000;2024-02-16T09:07:31;100830.66;;;11.97;100.00
10806;BME280;5455;53.224;6.000;2024-02-16T09:09:58;100829.94;;;12.00;100.00
10806;BME280;5455;53.224;6.000;2024-02-16T09:12:25;100841.13;;;12.07;100.00
10806;BME280;5455;53.224;6.000;2024-02-16T09:14:52;100833.72;;;12.14;100.00
10806;BME280;5455;53.224;6.000;2024-02-16T09:17:20;100849.81;;;12.09;100.00
10806;BME280;5455;53.224;6.000;2024-02-16T09:19:47;100848.66;;;12.10;100.00
10806;BME280;5455;53.224;6.000;2024-02-16T09:22:15;100856.16;;;12.09;100.00
10806;BME280;5455;53.224;6.000;2024-02-16T09:24:43;100849.41;;;12.07;100.00
10806;BME280;5455;53.224;6.000;2024-02-16T09:27:14;100863.72;;;12.12;100.00
10806;BME280;5455;53.224;6.000;2024-02-16T09:29:42;100871.75;;;12.21;100.00
10806;BME280;5455;53.224;6.000;2024-02-16T09:32:09;100865.91;;;12.26;100.00
10806;BME280;5455;53.224;6.000;2024-02-16T09:34:37;100884.50;;;12.26;100.00
10806;BME280;5455;53.224;6.000;2024-02-16T09:37:05;100880.53;;;12.27;100.00
10806;BME280;5455;53.224;6.000;2024-02-16T09:39:32;100880.22;;;12.32;100.00
10806;BME280;5455;53.224;6.000;2024-02-16T09:42:02;100891.72;;;12.34;100.00
10806;BME280;5455;53.224;6.000;2024-02-16T09:44:30;100880.47;;;12.23;100.00
10806;BME280;5455;53.224;6.000;2024-02-16T09:46:59;100889.94;;;12.22;100.00
10806;BME280;5455;53.224;6.000;2024-02-16T09:49:27;100889.16;;;12.22;100.00
10806;BME280;5455;53.224;6.000;2024-02-16T09:52:09;100892.31;;;12.24;100.00
10806;BME280;5455;53.224;6.000;2024-02-16T09:54:38;100896.69;;;12.25;100.00
10806;BME280;5455;53.224;6.000;2024-02-16T09:57:06;100899.81;;;12.23;100.00
10806;BME280;5455;53.224;6.000;2024-02-16T09:59:33;100909.31;;;12.22;100.00
10806;BME280;5455;53.224;6.000;2024-02-16T10:02:02;100916.28;;;12.16;100.00
10806;BME280;5455;53.224;6.000;2024-02-16T10:04:30;100911.50;;;12.13;100.00
10806;BME280;5455;53.224;6.000;2024-02-16T10:07:01;100915.91;;;12.18;100.00
10806;BME280;5455;53.224;6.000;2024-02-16T10:09:28;100924.88;;;12.11;100.00
10806;BME280;5455;53.224;6.000;2024-02-16T10:12:02;100908.19;;;12.04;100.00
10806;BME280;5455;53.224;6.000;2024-02-16T10:14:29;100921.06;;;11.96;100.00
10806;BME280;5455;53.224;6.000;2024-02-16T10:17:03;100926.91;;;11.91;100.00
10806;BME280;5455;53.224;6.000;2024-02-16T10:19:31;100933.88;;;11.85;100.00
10806;BME280;5455;53.224;6.000;2024-02-16T10:22:10;100941.75;;;11.83;100.00
10806;BME280;5455;53.224;6.000;2024-02-16T10:24:39;100947.63;;;11.82;100.00
10806;BME280;5455;53.224;6.000;2024-02-16T10:27:17;100964.13;;;11.78;100.00
10806;BME280;5455;53.224;6.000;2024-02-16T10:29:49;100962.81;;;11.72;100.00
10806;BME280;5455;53.224;6.000;2024-02-16T10:32:19;100977.00;;;11.71;100.00
10806;BME280;5455;53.224;6.000;2024-02-16T10:34:47;100969.72;;;11.63;100.00
10806;BME280;5455;53.224;6.000;2024-02-16T10:37:16;100974.34;;;11.58;100.00
10806;BME280;5455;53.224;6.000;2024-02-16T10:39:44;100985.31;;;11.55;100.00
10806;BME280;5455;53.224;6.000;2024-02-16T10:42:12;100989.09;;;11.47;100.00
10806;BME280;5455;53.224;6.000;2024-02-16T10:44:43;100993.28;;;11.41;100.00
10806;BME280;5455;53.224;6.000;2024-02-16T10:47:10;101005.50;;;11.40;100.00
10806;BME280;5455;53.224;6.000;2024-02-16T10:49:37;101001.19;;;11.42;100.00
10806;BME280;5455;53.224;6.000;2024-02-16T10:52:05;100997.03;;;11.33;100.00
10806;BME280;5455;53.224;6.000;2024-02-16T10:54:34;101001.97;;;11.24;100.00
10806;BME280;5455;53.224;6.000;2024-02-16T10:57:02;101014.19;;;11.23;100.00
10806;BME280;5455;53.224;6.000;2024-02-16T10:59:40;101023.44;;;11.15;100.00
10806;BME280;5455;53.224;6.000;2024-02-16T11:02:08;101035.66;;;11.14;100.00
10806;BME280;5455;53.224;6.000;2024-02-16T11:04:47;101041.41;;;11.08;100.00
10806;BME280;5455;53.224;6.000;2024-02-16T11:07:17;101042.50;;;11.04;100.00
10806;BME280;5455;53.224;6.000;2024-02-16T11:09:46;101043.22;;;11.01;100.00
10806;BME280;5455;53.224;6.000;2024-02-16T11:12:14;101037.28;;;10.99;100.00
10806;BME280;5455;53.224;6.000;2024-02-16T11:14:45;101025.00;;;10.96;100.00
10806;BME280;5455;53.224;6.000;2024-02-16T11:17:20;101039.56;;;10.97;100.00
10806;BME280;5455;53.224;6.000;2024-02-16T11:19:48;101040.03;;;10.99;100.00
10806;BME280;5455;53.224;6.000;2024-02-16T11:22:19;101045.19;;;11.00;100.00
10806;BME280;5455;53.224;6.000;2024-02-16T11:24:49;101053.63;;;11.07;100.00
10806;BME280;5455;53.224;6.000;2024-02-16T11:27:17;101062.72;;;11.08;100.00
10806;BME280;5455;53.224;6.000;2024-02-16T11:29:49;101070.38;;;10.99;100.00
10806;BME280;5455;53.224;6.000;2024-02-16T11:32:20;101084.69;;;11.04;100.00
10806;BME280;5455;53.224;6.000;2024-02-16T11:34:48;101082.66;;;11.01;100.00
10806;BME280;5455;53.224;6.000;2024-02-16T11:37:16;101091.66;;;10.98;100.00
10806;BME280;5455;53.224;6.000;2024-02-16T11:39:46;101092.88;;;11.01;100.00
10806;BME280;5455;53.224;6.000;2024-02-16T11:42:19;101100.03;;;11.02;100.00
10806;BME280;5455;53.224;6.000;2024-02-16T11:44:52;101113.00;;;11.01;100.00
10806;BME280;5455;53.224;6.000;2024-02-16T11:47:21;101123.56;;;10.99;100.00
10806;BME280;5455;53.224;6.000;2024-02-16T11:50:09;101134.81;;;11.06;100.00
10806;BME280;5455;53.224;6.000;2024-02-16T11:52:39;101136.41;;;11.07;100.00
10806;BME280;5455;53.224;6.000;2024-02-16T11:55:10;101130.91;;;11.07;100.00
10806;BME280;5455;53.224;6.000;2024-02-16T11:57:38;101128.16;;;11.07;100.00
10806;BME280;5455;53.224;6.000;2024-02-16T12:00:06;101133.28;;;11.09;100.00
10806;BME280;5455;53.224;6.000;2024-02-16T12:02:42;101146.56;;;11.03;100.00
10806;BME280;5455;53.224;6.000;2024-02-16T12:05:13;101138.56;;;10.98;100.00
10806;BME280;5455;53.224;6.000;2024-02-16T12:07:40;101133.47;;;11.00;100.00
10806;BME280;5455;53.224;6.000;2024-02-16T12:10:08;101136.84;;;11.10;100.00
10806;BME280;5455;53.224;6.000;2024-02-16T12:12:36;101134.28;;;11.17;100.00
10806;BME280;5455;53.224;6.000;2024-02-16T12:15:05;101152.53;;;11.21;100.00
10806;BME280;5455;53.224;6.000;2024-02-16T12:17:33;101161.97;;;11.20;100.00
10806;BME280;5455;53.224;6.000;2024-02-16T12:20:00;101156.81;;;11.19;100.00
10806;BME280;5455;53.224;6.000;2024-02-16T12:22:27;101154.84;;;11.19;100.00
10806;BME280;5455;53.224;6.000;2024-02-16T12:24:54;101164.38;;;11.22;100.00
10806;BME280;5455;53.224;6.000;2024-02-16T12:27:23;101155.09;;;11.30;100.00
10806;BME280;5455;53.224;6.000;2024-02-16T12:29:50;101169.47;;;11.20;100.00
10806;BME280;5455;53.224;6.000;2024-02-16T12:32:17;101171.22;;;11.12;100.00
10806;BME280;5455;53.224;6.000;2024-02-16T12:34:46;101167.66;;;11.12;100.00
10806;BME280;5455;53.224;6.000;2024-02-16T12:37:14;101182.66;;;11.26;100.00
10806;BME280;5455;53.224;6.000;2024-02-16T12:39:44;101181.22;;;11.32;100.00
10806;BME280;5455;53.224;6.000;2024-02-16T12:42:12;101192.34;;;11.36;100.00
10806;BME280;5455;53.224;6.000;2024-02-16T12:44:41;101205.25;;;11.32;100.00
10806;BME280;5455;53.224;6.000;2024-02-16T12:47:08;101208.81;;;11.32;100.00
10806;BME280;5455;53.224;6.000;2024-02-16T12:49:35;101209.59;;;11.33;100.00
10806;BME280;5455;53.224;6.000;2024-02-16T12:52:03;101223.88;;;11.35;100.00
10806;BME280;5455;53.224;6.000;2024-02-16T12:54:30;101224.03;;;11.42;100.00